sensor_id;sensor_type;location;lat;lon;timestamp;temperature;humidity
3416;DHT22;1721;51.238;9.562;2023-04-06T00:01:25;4.60;69.00
3416;DHT22;1721;51.238;9.562;2023-04-06T00:03:51;4.50;68.80
3416;DHT22;1721;51.238;9.562;2023-04-06T00:06:16;4.40;69.20
3416;DHT22;1721;51.238;9.562;2023-04-06T00:08:42;4.40;70.00
3416;DHT22;1721;51.238;9.562;2023-04-06T00:11:08;4.20;70.60
3416;DHT22;1721;51.238;9.562;2023-04-06T00:13:34;4.10;70.90
3416;DHT22;1721;51.238;9.562;2023-04-06T00:16:00;4.10;70.90
3416;DHT22;1721;51.238;9.562;2023-04-06T00:18:26;4.10;70.70
3416;DHT22;1721;51.238;9.562;2023-04-06T00:20:51;4.00;70.60
3416;DHT22;1721;51.238;9.562;2023-04-06T00:23:17;4.00;71.80
3416;DHT22;1721;51.238;9.562;2023-04-06T00:25:43;3.90;71.00
3416;DHT22;1721;51.238;9.562;2023-04-06T00:28:08;4.00;70.80
3416;DHT22;1721;51.238;9.562;2023-04-06T00:30:34;4.00;71.50
3416;DHT22;1721;51.238;9.562;2023-04-06T00:33:00;4.00;71.90
3416;DHT22;1721;51.238;9.562;2023-04-06T00:35:26;3.90;72.80
3416;DHT22;1721;51.238;9.562;2023-04-06T00:37:51;3.80;73.30
3416;DHT22;1721;51.238;9.562;2023-04-06T00:40:17;3.70;73.80
3416;DHT22;1721;51.238;9.562;2023-04-06T00:42:43;3.70;73.50
3416;DHT22;1721;51.238;9.562;2023-04-06T00:45:09;3.60;73.50
3416;DHT22;1721;51.238;9.562;2023-04-06T00:47:35;3.60;74.00
3416;DHT22;1721;51.238;9.562;2023-04-06T00:50:00;3.50;74.10
3416;DHT22;1721;51.238;9.562;2023-04-06T00:52:26;3.40;74.50
3416;DHT22;1721;51.238;9.562;2023-04-06T00:54:51;3.50;74.60
3416;DHT22;1721;51.238;9.562;2023-04-06T00:57:17;3.40;74.90
3416;DHT22;1721;51.238;9.562;2023-04-06T00:59:43;3.40;75.20
3416;DHT22;1721;51.238;9.562;2023-04-06T01:02:09;3.40;75.30
3416;DHT22;1721;51.238;9.562;2023-04-06T01:04:35;3.40;75.00
3416;DHT22;1721;51.238;9.562;2023-04-06T01:07:01;3.40;74.90
3416;DHT22;1721;51.238;9.562;2023-04-06T01:09:28;3.40;75.30
3416;DHT22;1721;51.238;9.562;2023-04-06T01:11:55;3.40;75.10
3416;DHT22;1721;51.238;9.562;2023-04-06T01:14:21;3.40;75.00
3416;DHT22;1721;51.238;9.562;2023-04-06T01:16:47;3.40;74.90
3416;DHT22;1721;51.238;9.562;2023-04-06T01:19:13;3.50;74.90
3416;DHT22;1721;51.238;9.562;2023-04-06T01:21:40;3.50;74.70
3416;DHT22;1721;51.238;9.562;2023-04-06T01:24:06;3.40;74.70
3416;DHT22;1721;51.238;9.562;2023-04-06T01:26:32;3.40;74.70
3416;DHT22;1721;51.238;9.562;2023-04-06T01:28:58;3.50;74.60
3416;DHT22;1721;51.238;9.562;2023-04-06T01:31:24;3.40;74.40
3416;DHT22;1721;51.238;9.562;2023-04-06T01:33:50;3.50;74.50
3416;DHT22;1721;51.238;9.562;2023-04-06T01:36:16;3.50;74.20
3416;DHT22;1721;51.238;9.562;2023-04-06T01:38:41;3.50;73.40
3416;DHT22;1721;51.238;9.562;2023-04-06T01:41:08;3.50;73.80
3416;DHT22;1721;51.238;9.562;2023-04-06T01:43:33;3.50;73.90
3416;DHT22;1721;51.238;9.562;2023-04-06T01:45:59;3.50;73.80
3416;DHT22;1721;51.238;9.562;2023-04-06T01:48:26;3.50;73.80
3416;DHT22;1721;51.238;9.562;2023-04-06T01:50:52;3.50;73.80
3416;DHT22;1721;51.238;9.562;2023-04-06T01:53:18;3.50;73.80
3416;DHT22;1721;51.238;9.562;2023-04-06T01:55:43;3.50;73.80
3416;DHT22;1721;51.238;9.562;2023-04-06T01:58:09;3.50;74.00
3416;DHT22;1721;51.238;9.562;2023-04-06T02:00:34;3.50;74.10
3416;DHT22;1721;51.238;9.562;2023-04-06T02:03:00;3.50;74.20
3416;DHT22;1721;51.238;9.562;2023-04-06T02:05:26;3.50;74.40
3416;DHT22;1721;51.238;9.562;2023-04-06T02:07:52;3.50;74.70
3416;DHT22;1721;51.238;9.562;2023-04-06T02:10:18;3.50;74.90
3416;DHT22;1721;51.238;9.562;2023-04-06T02:12:43;3.50;75.20
3416;DHT22;1721;51.238;9.562;2023-04-06T02:15:10;3.40;75.00
3416;DHT22;1721;51.238;9.562;2023-04-06T02:17:36;3.40;75.10
3416;DHT22;1721;51.238;9.562;2023-04-06T02:20:01;3.40;75.10
3416;DHT22;1721;51.238;9.562;2023-04-06T02:22:27;3.40;74.80
3416;DHT22;1721;51.238;9.562;2023-04-06T02:24:52;3.40;74.80
3416;DHT22;1721;51.238;9.562;2023-04-06T02:27:18;3.30;74.90
3416;DHT22;1721;51.238;9.562;2023-04-06T02:29:43;3.30;75.00
3416;DHT22;1721;51.238;9.562;2023-04-06T02:32:09;3.30;75.30
3416;DHT22;1721;51.238;9.562;2023-04-06T02:34:34;3.30;75.50
3416;DHT22;1721;51.238;9.562;2023-04-06T02:37:00;3.30;75.50
3416;DHT22;1721;51.238;9.562;2023-04-06T02:39:25;3.30;75.60
3416;DHT22;1721;51.238;9.562;2023-04-06T02:41:51;3.30;76.20
3416;DHT22;1721;51.238;9.562;2023-04-06T02:44:17;3.20;75.40
3416;DHT22;1721;51.238;9.562;2023-04-06T02:46:42;3.20;75.40
3416;DHT22;1721;51.238;9.562;2023-04-06T02:49:08;3.20;75.30
3416;DHT22;1721;51.238;9.562;2023-04-06T02:51:33;3.20;75.00
3416;DHT22;1721;51.238;9.562;2023-04-06T02:53:59;3.30;74.80
3416;DHT22;1721;51.238;9.562;2023-04-06T02:56:25;3.20;74.40
3416;DHT22;1721;51.238;9.562;2023-04-06T02:58:51;3.20;74.70
3416;DHT22;1721;51.238;9.562;2023-04-06T03:01:17;3.20;74.70
3416;DHT22;1721;51.238;9.562;2023-04-06T03:03:42;3.20;74.90
3416;DHT22;1721;51.238;9.562;2023-04-06T03:06:08;3.20;74.80
3416;DHT22;1721;51.238;9.562;2023-04-06T03:08:34;3.20;74.90
3416;DHT22;1721;51.238;9.562;2023-04-06T03:10:59;3.20;74.90
3416;DHT22;1721;51.238;9.562;2023-04-06T03:13:25;3.10;75.00
3416;DHT22;1721;51.238;9.562;2023-04-06T03:15:51;3.10;74.90
3416;DHT22;1721;51.238;9.562;2023-04-06T03:18:21;3.10;74.90
3416;DHT22;1721;51.238;9.562;2023-04-06T03:20:46;3.00;75.10
3416;DHT22;1721;51.238;9.562;2023-04-06T03:23:12;3.00;75.40
3416;DHT22;1721;51.238;9.562;2023-04-06T03:25:38;3.00;75.60
3416;DHT22;1721;51.238;9.562;2023-04-06T03:28:05;3.00;75.60
3416;DHT22;1721;51.238;9.562;2023-04-06T03:30:30;3.00;75.50
3416;DHT22;1721;51.238;9.562;2023-04-06T03:32:56;3.00;75.80
3416;DHT22;1721;51.238;9.562;2023-04-06T03:35:21;3.00;76.00
3416;DHT22;1721;51.238;9.562;2023-04-06T03:37:47;3.00;75.90
3416;DHT22;1721;51.238;9.562;2023-04-06T03:40:12;3.00;75.80
3416;DHT22;1721;51.238;9.562;2023-04-06T03:42:38;3.00;75.80
3416;DHT22;1721;51.238;9.562;2023-04-06T03:45:04;3.00;75.90
3416;DHT22;1721;51.238;9.562;2023-04-06T03:47:29;3.00;75.90
3416;DHT22;1721;51.238;9.562;2023-04-06T03:49:55;3.00;76.00
3416;DHT22;1721;51.238;9.562;2023-04-06T03:52:21;3.00;76.00
3416;DHT22;1721;51.238;9.562;2023-04-06T03:54:48;2.90;76.10
3416;DHT22;1721;51.238;9.562;2023-04-06T03:57:14;2.90;76.10
3416;DHT22;1721;51.238;9.562;2023-04-06T03:59:39;2.90;76.20
3416;DHT22;1721;51.238;9.562;2023-04-06T04:02:05;2.90;76.10
3416;DHT22;1721;51.238;9.562;2023-04-06T04:04:31;2.90;76.20
3416;DHT22;1721;51.238;9.562;2023-04-06T04:06:56;2.90;76.00
3416;DHT22;1721;51.238;9.562;2023-04-06T04:09:22;2.80;76.00
3416;DHT22;1721;51.238;9.562;2023-04-06T04:11:47;2.80;76.00
3416;DHT22;1721;51.238;9.562;2023-04-06T04:14:13;2.80;76.20
3416;DHT22;1721;51.238;9.562;2023-04-06T04:16:38;2.80;76.10
3416;DHT22;1721;51.238;9.562;2023-04-06T04:19:04;2.80;76.10
3416;DHT22;1721;51.238;9.562;2023-04-06T04:21:31;2.80;76.10
3416;DHT22;1721;51.238;9.562;2023-04-06T04:23:57;2.80;76.20
3416;DHT22;1721;51.238;9.562;2023-04-06T04:26:23;2.70;76.30
3416;DHT22;1721;51.238;9.562;2023-04-06T04:28:48;2.70;76.40
3416;DHT22;1721;51.238;9.562;2023-04-06T04:31:14;2.70;76.50
3416;DHT22;1721;51.238;9.562;2023-04-06T04:33:39;2.70;76.80
3416;DHT22;1721;51.238;9.562;2023-04-06T04:36:05;2.70;76.70
3416;DHT22;1721;51.238;9.562;2023-04-06T04:38:31;2.70;76.60
3416;DHT22;1721;51.238;9.562;2023-04-06T04:40:56;2.70;76.60
3416;DHT22;1721;51.238;9.562;2023-04-06T04:43:22;2.70;76.70
3416;DHT22;1721;51.238;9.562;2023-04-06T04:45:48;2.70;76.70
3416;DHT22;1721;51.238;9.562;2023-04-06T04:48:13;2.70;76.60
3416;DHT22;1721;51.238;9.562;2023-04-06T04:50:39;2.70;76.60
3416;DHT22;1721;51.238;9.562;2023-04-06T04:53:04;2.70;76.80
3416;DHT22;1721;51.238;9.562;2023-04-06T04:55:33;2.70;76.70
3416;DHT22;1721;51.238;9.562;2023-04-06T04:57:58;2.70;76.70
3416;DHT22;1721;51.238;9.562;2023-04-06T05:00:24;2.70;76.70
3416;DHT22;1721;51.238;9.562;2023-04-06T05:02:51;2.80;76.80
3416;DHT22;1721;51.238;9.562;2023-04-06T05:05:16;2.80;76.50
3416;DHT22;1721;51.238;9.562;2023-04-06T05:07:42;2.80;76.40
3416;DHT22;1721;51.238;9.562;2023-04-06T05:10:07;2.90;76.60
3416;DHT22;1721;51.238;9.562;2023-04-06T05:12:33;2.90;76.60
3416;DHT22;1721;51.238;9.562;2023-04-06T05:14:59;2.90;76.60
3416;DHT22;1721;51.238;9.562;2023-04-06T05:17:24;2.90;76.60
3416;DHT22;1721;51.238;9.562;2023-04-06T05:19:50;3.00;76.60
3416;DHT22;1721;51.238;9.562;2023-04-06T05:22:16;3.10;76.90
3416;DHT22;1721;51.238;9.562;2023-04-06T05:24:43;3.10;76.90
3416;DHT22;1721;51.238;9.562;2023-04-06T05:27:09;3.20;76.80
3416;DHT22;1721;51.238;9.562;2023-04-06T05:29:35;3.20;76.70
3416;DHT22;1721;51.238;9.562;2023-04-06T05:32:01;3.30;76.70
3416;DHT22;1721;51.238;9.562;2023-04-06T05:34:26;3.40;76.70
3416;DHT22;1721;51.238;9.562;2023-04-06T05:36:52;3.40;76.90
3416;DHT22;1721;51.238;9.562;2023-04-06T05:39:17;3.50;76.90
3416;DHT22;1721;51.238;9.562;2023-04-06T05:41:43;3.50;76.80
3416;DHT22;1721;51.238;9.562;2023-04-06T05:44:08;3.60;76.60
3416;DHT22;1721;51.238;9.562;2023-04-06T05:46:34;3.70;76.60
3416;DHT22;1721;51.238;9.562;2023-04-06T05:49:00;3.70;76.30
3416;DHT22;1721;51.238;9.562;2023-04-06T05:51:25;3.90;76.20
3416;DHT22;1721;51.238;9.562;2023-04-06T05:53:52;4.00;75.80
3416;DHT22;1721;51.238;9.562;2023-04-06T05:56:18;4.10;76.00
3416;DHT22;1721;51.238;9.562;2023-04-06T05:58:44;4.20;75.90
3416;DHT22;1721;51.238;9.562;2023-04-06T06:01:09;4.30;75.60
3416;DHT22;1721;51.238;9.562;2023-04-06T06:03:35;4.50;75.20
3416;DHT22;1721;51.238;9.562;2023-04-06T06:06:04;4.60;74.70
3416;DHT22;1721;51.238;9.562;2023-04-06T06:08:30;4.70;74.00
3416;DHT22;1721;51.238;9.562;2023-04-06T06:10:56;4.80;74.10
3416;DHT22;1721;51.238;9.562;2023-04-06T06:13:22;4.80;74.50
3416;DHT22;1721;51.238;9.562;2023-04-06T06:15:49;4.80;75.00
3416;DHT22;1721;51.238;9.562;2023-04-06T06:18:15;4.80;75.00
3416;DHT22;1721;51.238;9.562;2023-04-06T06:20:40;4.90;75.10
3416;DHT22;1721;51.238;9.562;2023-04-06T06:23:06;4.80;75.60
3416;DHT22;1721;51.238;9.562;2023-04-06T06:25:32;4.90;76.00
3416;DHT22;1721;51.238;9.562;2023-04-06T06:27:58;5.00;76.00
3416;DHT22;1721;51.238;9.562;2023-04-06T06:30:24;5.00;76.50
3416;DHT22;1721;51.238;9.562;2023-04-06T06:32:50;5.10;76.20
3416;DHT22;1721;51.238;9.562;2023-04-06T06:35:16;5.20;75.50
3416;DHT22;1721;51.238;9.562;2023-04-06T06:37:42;5.20;74.10
3416;DHT22;1721;51.238;9.562;2023-04-06T06:40:09;5.20;74.30
3416;DHT22;1721;51.238;9.562;2023-04-06T06:42:35;5.20;74.50
3416;DHT22;1721;51.238;9.562;2023-04-06T06:45:01;5.40;74.80
3416;DHT22;1721;51.238;9.562;2023-04-06T06:47:26;5.40;73.70
3416;DHT22;1721;51.238;9.562;2023-04-06T06:49:52;5.30;74.20
3416;DHT22;1721;51.238;9.562;2023-04-06T06:52:17;5.40;72.60
3416;DHT22;1721;51.238;9.562;2023-04-06T06:54:44;5.50;72.10
3416;DHT22;1721;51.238;9.562;2023-04-06T06:57:09;5.80;70.80
3416;DHT22;1721;51.238;9.562;2023-04-06T06:59:35;5.90;72.40
3416;DHT22;1721;51.238;9.562;2023-04-06T07:02:01;5.90;69.70
3416;DHT22;1721;51.238;9.562;2023-04-06T07:04:26;6.30;71.20
3416;DHT22;1721;51.238;9.562;2023-04-06T07:06:52;6.40;69.40
3416;DHT22;1721;51.238;9.562;2023-04-06T07:09:18;6.50;70.00
3416;DHT22;1721;51.238;9.562;2023-04-06T07:11:44;6.60;68.80
3416;DHT22;1721;51.238;9.562;2023-04-06T07:14:09;7.00;68.90
3416;DHT22;1721;51.238;9.562;2023-04-06T07:16:36;7.30;67.90
3416;DHT22;1721;51.238;9.562;2023-04-06T07:19:02;7.50;66.20
3416;DHT22;1721;51.238;9.562;2023-04-06T07:21:28;7.80;67.40
3416;DHT22;1721;51.238;9.562;2023-04-06T07:23:53;7.80;66.30
3416;DHT22;1721;51.238;9.562;2023-04-06T07:26:19;8.00;66.40
3416;DHT22;1721;51.238;9.562;2023-04-06T07:28:45;8.10;65.00
3416;DHT22;1721;51.238;9.562;2023-04-06T07:31:11;8.30;65.30
3416;DHT22;1721;51.238;9.562;2023-04-06T07:33:36;8.40;64.10
3416;DHT22;1721;51.238;9.562;2023-04-06T07:36:02;8.60;65.40
3416;DHT22;1721;51.238;9.562;2023-04-06T07:38:28;8.70;64.50
3416;DHT22;1721;51.238;9.562;2023-04-06T07:40:53;8.70;64.70
3416;DHT22;1721;51.238;9.562;2023-04-06T07:43:19;8.80;65.40
3416;DHT22;1721;51.238;9.562;2023-04-06T07:45:44;8.90;64.50
3416;DHT22;1721;51.238;9.562;2023-04-06T07:48:10;8.80;64.50
3416;DHT22;1721;51.238;9.562;2023-04-06T07:50:36;9.00;65.80
3416;DHT22;1721;51.238;9.562;2023-04-06T07:53:02;9.20;62.00
3416;DHT22;1721;51.238;9.562;2023-04-06T07:55:28;9.20;61.30
3416;DHT22;1721;51.238;9.562;2023-04-06T07:57:53;9.00;60.10
3416;DHT22;1721;51.238;9.562;2023-04-06T08:00:19;8.90;62.40
3416;DHT22;1721;51.238;9.562;2023-04-06T08:02:45;8.80;61.10
3416;DHT22;1721;51.238;9.562;2023-04-06T08:05:10;8.80;62.00
3416;DHT22;1721;51.238;9.562;2023-04-06T08:07:36;9.00;63.50
3416;DHT22;1721;51.238;9.562;2023-04-06T08:10:02;9.10;60.40
3416;DHT22;1721;51.238;9.562;2023-04-06T08:12:28;9.10;61.10
3416;DHT22;1721;51.238;9.562;2023-04-06T08:14:54;9.00;58.40
3416;DHT22;1721;51.238;9.562;2023-04-06T08:17:19;8.80;61.30
3416;DHT22;1721;51.238;9.562;2023-04-06T08:19:45;8.80;60.90
3416;DHT22;1721;51.238;9.562;2023-04-06T08:22:11;8.90;62.20
3416;DHT22;1721;51.238;9.562;2023-04-06T08:24:37;9.10;61.40
3416;DHT22;1721;51.238;9.562;2023-04-06T08:27:03;9.30;59.70
3416;DHT22;1721;51.238;9.562;2023-04-06T08:29:29;9.40;59.50
3416;DHT22;1721;51.238;9.562;2023-04-06T08:31:54;9.30;60.50
3416;DHT22;1721;51.238;9.562;2023-04-06T08:34:20;9.30;60.00
3416;DHT22;1721;51.238;9.562;2023-04-06T08:36:46;9.40;61.30
3416;DHT22;1721;51.238;9.562;2023-04-06T08:39:12;9.50;62.40
3416;DHT22;1721;51.238;9.562;2023-04-06T08:41:37;9.70;62.20
3416;DHT22;1721;51.238;9.562;2023-04-06T08:44:03;9.90;61.10
3416;DHT22;1721;51.238;9.562;2023-04-06T08:46:30;10.00;59.70
3416;DHT22;1721;51.238;9.562;2023-04-06T08:48:57;10.00;57.70
3416;DHT22;1721;51.238;9.562;2023-04-06T08:51:26;10.00;56.80
3416;DHT22;1721;51.238;9.562;2023-04-06T08:53:56;10.10;58.00
3416;DHT22;1721;51.238;9.562;2023-04-06T08:56:26;10.20;56.80
3416;DHT22;1721;51.238;9.562;2023-04-06T08:58:53;10.30;56.20
3416;DHT22;1721;51.238;9.562;2023-04-06T09:01:27;10.20;56.10
3416;DHT22;1721;51.238;9.562;2023-04-06T09:03:57;10.10;55.00
3416;DHT22;1721;51.238;9.562;2023-04-06T09:06:24;10.10;55.50
3416;DHT22;1721;51.238;9.562;2023-04-06T09:08:51;10.00;56.70
3416;DHT22;1721;51.238;9.562;2023-04-06T09:11:17;10.10;58.30
3416;DHT22;1721;51.238;9.562;2023-04-06T09:13:51;10.20;59.70
3416;DHT22;1721;51.238;9.562;2023-04-06T09:16:17;10.20;57.50
3416;DHT22;1721;51.238;9.562;2023-04-06T09:18:44;10.40;58.50
3416;DHT22;1721;51.238;9.562;2023-04-06T09:21:10;10.60;59.00
3416;DHT22;1721;51.238;9.562;2023-04-06T09:23:36;10.60;58.20
3416;DHT22;1721;51.238;9.562;2023-04-06T09:26:13;10.70;58.40
3416;DHT22;1721;51.238;9.562;2023-04-06T09:31:20;10.70;58.20
3416;DHT22;1721;51.238;9.562;2023-04-06T09:33:46;10.90;56.40
3416;DHT22;1721;51.238;9.562;2023-04-06T09:36:12;10.70;57.50
3416;DHT22;1721;51.238;9.562;2023-04-06T09:38:52;10.60;57.00
3416;DHT22;1721;51.238;9.562;2023-04-06T09:44:04;10.80;56.00
3416;DHT22;1721;51.238;9.562;2023-04-06T09:46:35;10.70;53.30
3416;DHT22;1721;51.238;9.562;2023-04-06T09:49:04;10.70;55.80
3416;DHT22;1721;51.238;9.562;2023-04-06T09:51:31;10.70;56.30
3416;DHT22;1721;51.238;9.562;2023-04-06T09:53:59;10.90;56.40
3416;DHT22;1721;51.238;9.562;2023-04-06T09:56:28;10.90;56.40
3416;DHT22;1721;51.238;9.562;2023-04-06T09:59:01;11.00;58.00
3416;DHT22;1721;51.238;9.562;2023-04-06T10:01:30;10.90;57.50
3416;DHT22;1721;51.238;9.562;2023-04-06T10:04:10;11.00;59.50
3416;DHT22;1721;51.238;9.562;2023-04-06T10:06:38;11.00;59.60
3416;DHT22;1721;51.238;9.562;2023-04-06T10:09:06;11.10;57.10
3416;DHT22;1721;51.238;9.562;2023-04-06T10:11:33;11.20;57.70
3416;DHT22;1721;51.238;9.562;2023-04-06T10:13:59;11.00;57.70
3416;DHT22;1721;51.238;9.562;2023-04-06T10:16:25;11.10;58.30
3416;DHT22;1721;51.238;9.562;2023-04-06T10:18:57;11.10;57.80
3416;DHT22;1721;51.238;9.562;2023-04-06T10:21:27;10.80;58.80
3416;DHT22;1721;51.238;9.562;2023-04-06T10:24:01;10.90;59.90
3416;DHT22;1721;51.238;9.562;2023-04-06T10:26:31;11.00;58.10
3416;DHT22;1721;51.238;9.562;2023-04-06T10:29:04;11.10;59.70
3416;DHT22;1721;51.238;9.562;2023-04-06T10:31:30;11.20;59.90
3416;DHT22;1721;51.238;9.562;2023-04-06T10:33:57;11.20;59.00
3416;DHT22;1721;51.238;9.562;2023-04-06T10:36:28;11.20;59.40
3416;DHT22;1721;51.238;9.562;2023-04-06T10:39:02;11.20;58.50
3416;DHT22;1721;51.238;9.562;2023-04-06T10:41:43;11.20;58.10
3416;DHT22;1721;51.238;9.562;2023-04-06T10:44:23;11.30;58.00
3416;DHT22;1721;51.238;9.562;2023-04-06T10:46:56;11.30;56.50
3416;DHT22;1721;51.238;9.562;2023-04-06T10:49:22;11.20;56.40
3416;DHT22;1721;51.238;9.562;2023-04-06T10:51:52;11.10;58.50
3416;DHT22;1721;51.238;9.562;2023-04-06T10:54:19;11.20;59.20
3416;DHT22;1721;51.238;9.562;2023-04-06T10:56:46;11.20;58.00
3416;DHT22;1721;51.238;9.562;2023-04-06T10:59:11;11.30;57.50
3416;DHT22;1721;51.238;9.562;2023-04-06T11:01:37;11.40;59.30
3416;DHT22;1721;51.238;9.562;2023-04-06T11:04:02;11.50;59.50
3416;DHT22;1721;51.238;9.562;2023-04-06T11:06:30;11.60;60.00
3416;DHT22;1721;51.238;9.562;2023-04-06T11:08:57;11.50;58.50
3416;DHT22;1721;51.238;9.562;2023-04-06T11:11:24;11.60;59.40
3416;DHT22;1721;51.238;9.562;2023-04-06T11:19:07;12.00;58.70
3416;DHT22;1721;51.238;9.562;2023-04-06T11:21:41;11.80;57.50
3416;DHT22;1721;51.238;9.562;2023-04-06T11:24:09;11.60;58.00
3416;DHT22;1721;51.238;9.562;2023-04-06T11:26:42;11.60;60.00
3416;DHT22;1721;51.238;9.562;2023-04-06T11:29:10;11.50;57.90
3416;DHT22;1721;51.238;9.562;2023-04-06T11:31:46;11.60;58.30
3416;DHT22;1721;51.238;9.562;2023-04-06T11:34:15;11.80;58.70
3416;DHT22;1721;51.238;9.562;2023-04-06T11:36:42;12.00;59.10
3416;DHT22;1721;51.238;9.562;2023-04-06T11:39:08;12.10;60.00
3416;DHT22;1721;51.238;9.562;2023-04-06T11:41:33;12.10;59.10
3416;DHT22;1721;51.238;9.562;2023-04-06T11:44:01;12.20;59.80
3416;DHT22;1721;51.238;9.562;2023-04-06T11:46:28;12.30;59.00
3416;DHT22;1721;51.238;9.562;2023-04-06T11:48:58;12.40;57.80
3416;DHT22;1721;51.238;9.562;2023-04-06T11:51:25;12.30;56.10
3416;DHT22;1721;51.238;9.562;2023-04-06T11:53:52;12.30;53.50
3416;DHT22;1721;51.238;9.562;2023-04-06T11:56:28;12.30;54.10
3416;DHT22;1721;51.238;9.562;2023-04-06T11:58:55;12.20;54.50
3416;DHT22;1721;51.238;9.562;2023-04-06T12:01:22;12.30;55.70
3416;DHT22;1721;51.238;9.562;2023-04-06T12:03:48;12.40;54.80
3416;DHT22;1721;51.238;9.562;2023-04-06T12:06:14;12.30;54.60
3416;DHT22;1721;51.238;9.562;2023-04-06T12:08:40;12.30;52.90
3416;DHT22;1721;51.238;9.562;2023-04-06T12:11:06;12.20;55.10
3416;DHT22;1721;51.238;9.562;2023-04-06T12:13:31;12.10;55.40
3416;DHT22;1721;51.238;9.562;2023-04-06T12:15:57;12.20;55.20
3416;DHT22;1721;51.238;9.562;2023-04-06T12:18:22;12.40;58.10
3416;DHT22;1721;51.238;9.562;2023-04-06T12:20:48;12.40;57.40
3416;DHT22;1721;51.238;9.562;2023-04-06T12:23:13;12.50;55.90
3416;DHT22;1721;51.238;9.562;2023-04-06T12:25:40;12.40;54.00
3416;DHT22;1721;51.238;9.562;2023-04-06T12:28:06;12.30;54.50
3416;DHT22;1721;51.238;9.562;2023-04-06T12:30:32;12.30;54.60
3416;DHT22;1721;51.238;9.562;2023-04-06T12:32:57;12.40;54.50
3416;DHT22;1721;51.238;9.562;2023-04-06T12:35:23;12.40;53.40
3416;DHT22;1721;51.238;9.562;2023-04-06T12:37:49;12.40;52.20
3416;DHT22;1721;51.238;9.562;2023-04-06T12:40:15;12.50;54.20
3416;DHT22;1721;51.238;9.562;2023-04-06T12:42:40;12.40;55.10
3416;DHT22;1721;51.238;9.562;2023-04-06T12:45:07;12.40;57.10
3416;DHT22;1721;51.238;9.562;2023-04-06T12:47:33;12.40;56.80
3416;DHT22;1721;51.238;9.562;2023-04-06T12:49:59;12.50;55.70
3416;DHT22;1721;51.238;9.562;2023-04-06T12:52:24;12.40;56.40
3416;DHT22;1721;51.238;9.562;2023-04-06T12:54:50;12.50;57.70
3416;DHT22;1721;51.238;9.562;2023-04-06T12:57:17;12.50;56.20
3416;DHT22;1721;51.238;9.562;2023-04-06T12:59:45;12.50;54.50
3416;DHT22;1721;51.238;9.562;2023-04-06T13:02:11;12.40;57.00
3416;DHT22;1721;51.238;9.562;2023-04-06T13:04:37;12.40;55.20
3416;DHT22;1721;51.238;9.562;2023-04-06T13:07:02;12.30;54.30
3416;DHT22;1721;51.238;9.562;2023-04-06T13:09:28;12.40;55.70
3416;DHT22;1721;51.238;9.562;2023-04-06T13:11:53;12.50;55.30
3416;DHT22;1721;51.238;9.562;2023-04-06T13:14:19;12.50;53.40
3416;DHT22;1721;51.238;9.562;2023-04-06T13:16:46;12.50;54.40
3416;DHT22;1721;51.238;9.562;2023-04-06T13:19:11;12.50;53.20
3416;DHT22;1721;51.238;9.562;2023-04-06T13:21:37;12.50;50.30
3416;DHT22;1721;51.238;9.562;2023-04-06T13:24:02;12.50;54.70
3416;DHT22;1721;51.238;9.562;2023-04-06T13:26:30;12.50;54.80
3416;DHT22;1721;51.238;9.562;2023-04-06T13:28:55;12.60;56.00
3416;DHT22;1721;51.238;9.562;2023-04-06T13:31:22;12.50;55.10
3416;DHT22;1721;51.238;9.562;2023-04-06T13:33:47;12.50;53.40
3416;DHT22;1721;51.238;9.562;2023-04-06T13:36:13;12.50;54.40
3416;DHT22;1721;51.238;9.562;2023-04-06T13:38:38;12.70;54.00
3416;DHT22;1721;51.238;9.562;2023-04-06T13:41:04;12.60;54.30
3416;DHT22;1721;51.238;9.562;2023-04-06T13:43:30;12.60;54.50
3416;DHT22;1721;51.238;9.562;2023-04-06T13:45:57;12.60;53.90
3416;DHT22;1721;51.238;9.562;2023-04-06T13:48:25;12.60;53.80
3416;DHT22;1721;51.238;9.562;2023-04-06T13:50:51;12.50;54.30
3416;DHT22;1721;51.238;9.562;2023-04-06T13:53:17;12.60;53.70
3416;DHT22;1721;51.238;9.562;2023-04-06T13:55:44;12.60;53.30
3416;DHT22;1721;51.238;9.562;2023-04-06T13:58:17;12.50;53.80
3416;DHT22;1721;51.238;9.562;2023-04-06T14:00:42;12.40;53.70
3416;DHT22;1721;51.238;9.562;2023-04-06T14:03:08;12.30;53.80
3416;DHT22;1721;51.238;9.562;2023-04-06T14:05:33;12.30;55.00
3416;DHT22;1721;51.238;9.562;2023-04-06T14:07:59;12.40;56.90
3416;DHT22;1721;51.238;9.562;2023-04-06T14:10:24;12.30;56.60
3416;DHT22;1721;51.238;9.562;2023-04-06T14:12:52;12.40;55.70
3416;DHT22;1721;51.238;9.562;2023-04-06T14:15:18;12.60;56.90
3416;DHT22;1721;51.238;9.562;2023-04-06T14:17:44;12.70;53.60
3416;DHT22;1721;51.238;9.562;2023-04-06T14:20:10;12.70;52.10
3416;DHT22;1721;51.238;9.562;2023-04-06T14:22:40;12.70;52.30
3416;DHT22;1721;51.238;9.562;2023-04-06T14:25:06;12.70;53.70
3416;DHT22;1721;51.238;9.562;2023-04-06T14:27:32;12.70;55.00
3416;DHT22;1721;51.238;9.562;2023-04-06T14:29:58;12.60;55.10
3416;DHT22;1721;51.238;9.562;2023-04-06T14:32:23;12.60;54.00
3416;DHT22;1721;51.238;9.562;2023-04-06T14:34:49;12.70;54.30
3416;DHT22;1721;51.238;9.562;2023-04-06T14:37:15;12.60;54.70
3416;DHT22;1721;51.238;9.562;2023-04-06T14:39:42;12.70;53.00
3416;DHT22;1721;51.238;9.562;2023-04-06T14:42:08;12.80;53.60
3416;DHT22;1721;51.238;9.562;2023-04-06T14:44:33;12.90;53.60
3416;DHT22;1721;51.238;9.562;2023-04-06T14:47:02;12.80;54.50
3416;DHT22;1721;51.238;9.562;2023-04-06T14:49:29;12.80;54.00
3416;DHT22;1721;51.238;9.562;2023-04-06T14:51:54;12.80;53.20
3416;DHT22;1721;51.238;9.562;2023-04-06T14:54:20;12.80;51.50
3416;DHT22;1721;51.238;9.562;2023-04-06T14:56:45;12.80;53.40
3416;DHT22;1721;51.238;9.562;2023-04-06T14:59:11;12.90;53.10
3416;DHT22;1721;51.238;9.562;2023-04-06T15:01:36;12.80;53.00
3416;DHT22;1721;51.238;9.562;2023-04-06T15:04:03;12.70;54.00
3416;DHT22;1721;51.238;9.562;2023-04-06T15:06:29;12.60;54.30
3416;DHT22;1721;51.238;9.562;2023-04-06T15:08:55;12.50;52.70
3416;DHT22;1721;51.238;9.562;2023-04-06T15:11:21;12.60;53.40
3416;DHT22;1721;51.238;9.562;2023-04-06T15:13:47;12.70;54.90
3416;DHT22;1721;51.238;9.562;2023-04-06T15:16:12;12.60;53.80
3416;DHT22;1721;51.238;9.562;2023-04-06T15:18:39;12.40;53.80
3416;DHT22;1721;51.238;9.562;2023-04-06T15:21:05;12.40;53.80
3416;DHT22;1721;51.238;9.562;2023-04-06T15:23:32;12.50;55.20
3416;DHT22;1721;51.238;9.562;2023-04-06T15:26:00;12.50;55.00
3416;DHT22;1721;51.238;9.562;2023-04-06T15:28:25;12.40;54.60
3416;DHT22;1721;51.238;9.562;2023-04-06T15:30:51;12.30;55.20
3416;DHT22;1721;51.238;9.562;2023-04-06T15:33:17;12.30;54.70
3416;DHT22;1721;51.238;9.562;2023-04-06T15:35:42;12.30;53.50
3416;DHT22;1721;51.238;9.562;2023-04-06T15:38:09;12.30;52.00
3416;DHT22;1721;51.238;9.562;2023-04-06T15:40:42;12.30;52.60
3416;DHT22;1721;51.238;9.562;2023-04-06T15:43:08;12.20;56.30
3416;DHT22;1721;51.238;9.562;2023-04-06T15:45:34;12.30;56.50
3416;DHT22;1721;51.238;9.562;2023-04-06T15:47:59;12.20;55.20
3416;DHT22;1721;51.238;9.562;2023-04-06T15:50:25;12.20;56.80
3416;DHT22;1721;51.238;9.562;2023-04-06T15:52:52;12.30;58.00
3416;DHT22;1721;51.238;9.562;2023-04-06T15:55:17;12.40;57.80
3416;DHT22;1721;51.238;9.562;2023-04-06T15:57:43;12.30;57.80
3416;DHT22;1721;51.238;9.562;2023-04-06T16:00:09;12.30;56.50
3416;DHT22;1721;51.238;9.562;2023-04-06T16:02:35;12.40;56.20
3416;DHT22;1721;51.238;9.562;2023-04-06T16:05:00;12.40;56.50
3416;DHT22;1721;51.238;9.562;2023-04-06T16:07:28;12.40;56.60
3416;DHT22;1721;51.238;9.562;2023-04-06T16:09:54;12.40;56.30
3416;DHT22;1721;51.238;9.562;2023-04-06T16:12:20;12.30;55.60
3416;DHT22;1721;51.238;9.562;2023-04-06T16:14:46;12.30;56.20